createdAt,value
2019-03-27T00:00:40.353Z,1014.06
2019-03-27T00:01:40.370Z,1014.07
2019-03-27T00:02:40.391Z,1014.04
2019-03-27T00:03:40.406Z,1014.08
2019-03-27T00:04:40.422Z,1014.05
2019-03-27T00:05:40.443Z,1014.07
2019-03-27T00:06:40.457Z,1014.02
2019-03-27T00:07:40.476Z,1014.02
2019-03-27T00:08:40.493Z,1014.04
2019-03-27T00:09:40.511Z,1014.05
2019-03-27T00:10:40.528Z,1014.07
2019-03-27T00:11:40.547Z,1014.08
2019-03-27T00:12:40.564Z,1014.1
2019-03-27T00:13:40.580Z,1014.08
2019-03-27T00:14:40.598Z,1014.07
2019-03-27T00:15:40.615Z,1014.05
2019-03-27T00:16:40.633Z,1014.06
2019-03-27T00:17:40.651Z,1014.02
2019-03-27T00:18:40.670Z,1014.02
2019-03-27T00:19:40.686Z,1014.04
2019-03-27T00:20:40.704Z,1014.01
2019-03-27T00:21:40.721Z,1013.99
2019-03-27T00:22:40.737Z,1013.99
2019-03-27T00:23:40.758Z,1013.94
2019-03-27T00:24:40.774Z,1013.95
2019-03-27T00:25:40.791Z,1013.92
2019-03-27T00:26:40.807Z,1013.94
2019-03-27T00:27:40.826Z,1013.95
2019-03-27T00:28:40.850Z,1013.9
2019-03-27T00:29:40.860Z,1013.92
2019-03-27T00:30:40.879Z,1013.89
2019-03-27T00:31:40.898Z,1013.86
2019-03-27T00:32:40.913Z,1013.91
2019-03-27T00:33:40.934Z,1013.88
2019-03-27T00:34:40.946Z,1013.85
2019-03-27T00:35:40.966Z,1013.85
2019-03-27T00:36:40.983Z,1013.82
2019-03-27T00:37:41.000Z,1013.81
2019-03-27T00:38:41.019Z,1013.82
2019-03-27T00:39:41.034Z,1013.83
2019-03-27T00:40:41.053Z,1013.84
2019-03-27T00:41:41.068Z,1013.81
2019-03-27T00:42:41.087Z,1013.83
2019-03-27T00:43:41.105Z,1013.86
2019-03-27T00:44:41.122Z,1013.89
2019-03-27T00:45:41.139Z,1013.93
2019-03-27T00:46:41.158Z,1013.93
2019-03-27T00:47:41.176Z,1013.95
2019-03-27T00:48:41.197Z,1013.94
2019-03-27T00:49:41.209Z,1013.98
2019-03-27T00:50:41.226Z,1013.96
2019-03-27T00:51:41.245Z,1013.98
2019-03-27T00:52:41.261Z,1013.97
2019-03-27T00:53:41.277Z,1014
2019-03-27T00:54:41.296Z,1013.93
2019-03-27T00:55:41.314Z,1013.99
2019-03-27T00:56:41.333Z,1013.98
2019-03-27T00:57:41.348Z,1013.97
2019-03-27T00:58:41.365Z,1013.99
2019-03-27T00:59:41.386Z,1013.96
2019-03-27T01:00:41.399Z,1013.95
2019-03-27T01:01:41.417Z,1013.9
2019-03-27T01:02:41.435Z,1013.9
2019-03-27T01:03:41.451Z,1013.93
2019-03-27T01:04:41.469Z,1013.94
2019-03-27T01:05:41.486Z,1013.95
2019-03-27T01:06:41.504Z,1013.96
2019-03-27T01:07:41.523Z,1013.95
2019-03-27T01:08:41.541Z,1013.95
2019-03-27T01:09:41.557Z,1013.96
2019-03-27T01:10:41.574Z,1013.93
2019-03-27T01:11:41.591Z,1013.96
2019-03-27T01:12:41.609Z,1013.95
2019-03-27T01:13:41.626Z,1013.93
2019-03-27T01:14:41.643Z,1013.98
2019-03-27T01:15:41.660Z,1013.93
2019-03-27T01:16:41.928Z,1013.91
2019-03-27T01:17:41.696Z,1013.89
2019-03-27T01:18:41.712Z,1013.85
2019-03-27T01:19:41.729Z,1013.86
2019-03-27T01:20:41.749Z,1013.82
2019-03-27T01:21:41.763Z,1013.85
2019-03-27T01:22:41.781Z,1013.84
2019-03-27T01:23:41.799Z,1013.86
2019-03-27T01:24:41.816Z,1013.87
2019-03-27T01:25:41.834Z,1013.89
2019-03-27T01:26:41.851Z,1013.9
2019-03-27T01:27:41.870Z,1013.86
2019-03-27T01:28:41.885Z,1013.84
2019-03-27T01:29:41.903Z,1013.86
2019-03-27T01:30:41.920Z,1013.84
2019-03-27T01:31:41.936Z,1013.85
2019-03-27T01:32:41.954Z,1013.87
2019-03-27T01:33:41.971Z,1013.87
2019-03-27T01:34:41.988Z,1013.82
2019-03-27T01:35:42.006Z,1013.85
2019-03-27T01:36:42.023Z,1013.8
2019-03-27T01:37:42.040Z,1013.85
2019-03-27T01:38:42.058Z,1013.85
2019-03-27T01:39:42.074Z,1013.89
2019-03-27T01:40:42.092Z,1013.87
2019-03-27T01:41:42.110Z,1013.86
2019-03-27T01:42:42.127Z,1013.82
2019-03-27T01:43:42.144Z,1013.83
2019-03-27T01:44:42.161Z,1013.83
2019-03-27T01:45:52.331Z,1013.84
2019-03-27T01:46:42.196Z,1013.85
2019-03-27T01:47:42.213Z,1013.8
2019-03-27T01:48:42.230Z,1013.83
2019-03-27T01:49:42.249Z,1013.81
2019-03-27T01:50:42.263Z,1013.8
2019-03-27T01:51:42.281Z,1013.81
2019-03-27T01:52:42.299Z,1013.81
2019-03-27T01:53:42.317Z,1013.79
2019-03-27T01:54:42.335Z,1013.78
2019-03-27T01:55:42.355Z,1013.87
2019-03-27T01:56:42.369Z,1013.83
2019-03-27T01:57:42.389Z,1013.83
2019-03-27T01:58:42.402Z,1013.86
2019-03-27T01:59:42.420Z,1013.87
2019-03-27T02:00:42.438Z,1013.87
2019-03-27T02:01:42.454Z,1013.86
2019-03-27T02:02:42.476Z,1013.86
2019-03-27T02:03:42.489Z,1013.84
2019-03-27T02:04:42.506Z,1013.81
2019-03-27T02:05:42.524Z,1013.82
2019-03-27T02:06:42.541Z,1013.85
2019-03-27T02:07:42.563Z,1013.81
2019-03-27T02:08:42.586Z,1013.8
2019-03-27T02:09:42.592Z,1013.79
2019-03-27T02:10:42.618Z,1013.8
2019-03-27T02:11:42.627Z,1013.8
2019-03-27T02:12:42.644Z,1013.84
2019-03-27T02:13:42.661Z,1013.8
2019-03-27T02:14:42.679Z,1013.82
2019-03-27T02:15:42.695Z,1013.86
2019-03-27T02:16:42.714Z,1013.87
2019-03-27T02:17:42.730Z,1013.89
2019-03-27T02:18:42.749Z,1013.89
2019-03-27T02:19:42.765Z,1013.88
2019-03-27T02:20:42.782Z,1013.88
2019-03-27T02:21:42.799Z,1013.86
2019-03-27T02:22:42.816Z,1013.86
2019-03-27T02:23:42.834Z,1013.85
2019-03-27T02:24:42.852Z,1013.87
2019-03-27T02:25:42.869Z,1013.88
2019-03-27T02:26:42.890Z,1013.91
2019-03-27T02:27:42.902Z,1013.89
2019-03-27T02:28:42.920Z,1013.94
2019-03-27T02:29:42.938Z,1013.97
2019-03-27T02:30:42.956Z,1013.97
2019-03-27T02:31:42.972Z,1013.98
2019-03-27T02:32:42.990Z,1013.99
2019-03-27T02:33:43.007Z,1014.04
2019-03-27T02:34:43.025Z,1014.02
2019-03-27T02:35:43.041Z,1014
2019-03-27T02:36:43.063Z,1014
2019-03-27T02:37:43.079Z,1014.04
2019-03-27T02:38:43.100Z,1014.04
2019-03-27T02:39:43.119Z,1014.02
2019-03-27T02:40:43.128Z,1014.06
2019-03-27T02:41:43.146Z,1014.03
2019-03-27T02:42:43.165Z,1013.99
2019-03-27T02:43:43.184Z,1014.02
2019-03-27T02:44:43.198Z,1014
2019-03-27T02:45:43.216Z,1014.03
2019-03-27T02:46:43.232Z,1013.97
2019-03-27T02:47:43.249Z,1013.97
2019-03-27T02:48:43.271Z,1013.98
2019-03-27T02:49:43.284Z,1014
2019-03-27T02:50:43.306Z,1014.02
2019-03-27T02:51:43.323Z,1014.03
2019-03-27T02:52:43.338Z,1014.07
2019-03-27T02:53:43.353Z,1014.07
2019-03-27T02:54:43.370Z,1014.05
2019-03-27T02:55:43.387Z,1014.05
2019-03-27T02:56:43.414Z,1014.03
2019-03-27T02:57:43.483Z,1014.05
2019-03-27T02:58:43.447Z,1014.06
2019-03-27T02:59:43.461Z,1014.03
2019-03-27T03:00:43.475Z,1014.01
2019-03-27T03:01:47.654Z,1014.02
2019-03-27T03:02:43.514Z,1013.99
2019-03-27T03:03:43.526Z,1013.95
2019-03-27T03:04:43.544Z,1013.97
2019-03-27T03:05:43.562Z,1013.96
2019-03-27T03:06:43.579Z,1013.96
2019-03-27T03:07:43.598Z,1013.97
2019-03-27T03:08:43.617Z,1013.97
2019-03-27T03:09:43.630Z,1013.97
2019-03-27T03:10:45.773Z,1013.97
2019-03-27T03:11:43.669Z,1013.95
2019-03-27T03:12:43.684Z,1013.95
2019-03-27T03:13:43.709Z,1013.99
2019-03-27T03:14:43.718Z,1013.97
2019-03-27T03:15:43.734Z,1013.99
2019-03-27T03:16:43.751Z,1013.99
2019-03-27T03:17:43.768Z,1014
2019-03-27T03:18:43.787Z,1014
2019-03-27T03:19:43.806Z,1014.04
2019-03-27T03:20:43.821Z,1014.02
2019-03-27T03:21:43.839Z,1014
2019-03-27T03:22:43.862Z,1014.02
2019-03-27T03:23:43.874Z,1014.07
2019-03-27T03:24:43.891Z,1014.03
2019-03-27T03:25:43.907Z,1014.05
2019-03-27T03:26:43.929Z,1014.03
2019-03-27T03:27:43.945Z,1014.11
2019-03-27T03:28:43.960Z,1014.09
2019-03-27T03:29:43.976Z,1014.1
2019-03-27T03:30:43.994Z,1014.08
2019-03-27T03:31:44.037Z,1014.05
2019-03-27T03:32:44.029Z,1014.06
2019-03-27T03:33:44.046Z,1014.04
2019-03-27T03:34:44.075Z,1014.09
2019-03-27T03:35:44.079Z,1014.11
2019-03-27T03:36:44.101Z,1014.13
2019-03-27T03:37:44.114Z,1014.11
2019-03-27T03:38:44.133Z,1014.1
2019-03-27T03:39:44.205Z,1014.12
2019-03-27T03:40:44.167Z,1014.11
2019-03-27T03:41:44.184Z,1014.1
2019-03-27T03:42:44.203Z,1014.07
2019-03-27T03:43:44.219Z,1014.08
2019-03-27T03:44:44.240Z,1014.13
2019-03-27T03:45:44.254Z,1014.16
2019-03-27T03:46:58.674Z,1014.13
2019-03-27T03:47:44.287Z,1014.21
2019-03-27T03:48:44.305Z,1014.22
2019-03-27T03:49:44.323Z,1014.22
2019-03-27T03:50:44.347Z,1014.24
2019-03-27T03:51:44.365Z,1014.24
2019-03-27T03:52:45.932Z,1014.28
2019-03-27T03:53:44.392Z,1014.28
2019-03-27T03:54:44.416Z,1014.27
2019-03-27T03:55:44.426Z,1014.26
2019-03-27T03:56:44.444Z,1014.29
2019-03-27T03:57:44.463Z,1014.25
2019-03-27T03:58:44.480Z,1014.25
2019-03-27T03:59:44.496Z,1014.3
2019-03-27T04:00:44.514Z,1014.27
2019-03-27T04:01:44.533Z,1014.26
2019-03-27T04:02:44.548Z,1014.26
2019-03-27T04:03:44.565Z,1014.24
2019-03-27T04:04:44.584Z,1014.24
2019-03-27T04:05:44.601Z,1014.24
2019-03-27T04:06:44.616Z,1014.21
2019-03-27T04:07:44.647Z,1014.19
2019-03-27T04:08:44.676Z,1014.21
2019-03-27T04:09:44.671Z,1014.21
2019-03-27T04:10:44.735Z,1014.16
2019-03-27T04:11:44.712Z,1014.17
2019-03-27T04:12:44.724Z,1014.19
2019-03-27T04:13:44.739Z,1014.17
2019-03-27T04:14:44.756Z,1014.21
2019-03-27T04:15:44.781Z,1014.23
2019-03-27T04:16:44.789Z,1014.23
2019-03-27T04:17:44.816Z,1014.24
2019-03-27T04:18:44.824Z,1014.24
2019-03-27T04:19:44.846Z,1014.25
2019-03-27T04:20:44.861Z,1014.26
2019-03-27T04:21:44.912Z,1014.27
2019-03-27T04:22:44.896Z,1014.26
2019-03-27T04:23:44.914Z,1014.25
2019-03-27T04:24:44.929Z,1014.27
2019-03-27T04:26:07.613Z,1014.22
2019-03-27T04:26:44.965Z,1014.25
2019-03-27T04:27:44.984Z,1014.29
2019-03-27T04:28:44.998Z,1014.27
2019-03-27T04:29:45.018Z,1014.25
2019-03-27T04:30:45.035Z,1014.26
2019-03-27T04:31:45.053Z,1014.28
2019-03-27T04:32:45.069Z,1014.28
2019-03-27T04:33:45.086Z,1014.3
2019-03-27T04:34:47.027Z,1014.25
2019-03-27T04:35:45.123Z,1014.27
2019-03-27T04:36:45.140Z,1014.29
2019-03-27T04:37:45.161Z,1014.3
2019-03-27T04:38:45.172Z,1014.32
2019-03-27T04:39:45.190Z,1014.37
2019-03-27T04:40:45.208Z,1014.35
2019-03-27T04:41:45.227Z,1014.38
2019-03-27T04:42:45.241Z,1014.39
2019-03-27T04:43:45.259Z,1014.4
2019-03-27T04:44:45.278Z,1014.37
2019-03-27T04:45:45.355Z,1014.4
2019-03-27T04:46:45.312Z,1014.39
2019-03-27T04:47:45.329Z,1014.44
2019-03-27T04:48:45.348Z,1014.43
2019-03-27T04:49:45.365Z,1014.45
2019-03-27T04:50:45.385Z,1014.49
2019-03-27T04:51:45.399Z,1014.5
2019-03-27T04:52:45.418Z,1014.5
2019-03-27T04:53:45.433Z,1014.57
2019-03-27T04:54:45.450Z,1014.57
2019-03-27T04:55:45.469Z,1014.57
2019-03-27T04:56:45.487Z,1014.59
2019-03-27T04:57:45.503Z,1014.63
2019-03-27T04:58:45.525Z,1014.62
2019-03-27T04:59:45.538Z,1014.59
2019-03-27T05:00:45.556Z,1014.59
2019-03-27T05:01:45.572Z,1014.57
2019-03-27T05:02:45.592Z,1014.57
2019-03-27T05:03:45.609Z,1014.52
2019-03-27T05:04:45.624Z,1014.51
2019-03-27T05:05:45.644Z,1014.45
2019-03-27T05:06:45.663Z,1014.41
2019-03-27T05:07:45.679Z,1014.39
2019-03-27T05:08:45.694Z,1014.37
2019-03-27T05:09:45.711Z,1014.35
2019-03-27T05:10:45.729Z,1014.37
2019-03-27T05:11:45.746Z,1014.4
2019-03-27T05:12:45.764Z,1014.39
2019-03-27T05:13:45.782Z,1014.38
2019-03-27T05:14:45.799Z,1014.4
2019-03-27T05:15:45.816Z,1014.45
2019-03-27T05:16:45.834Z,1014.43
2019-03-27T05:17:46.605Z,1014.42
2019-03-27T05:18:45.868Z,1014.46
2019-03-27T05:19:45.885Z,1014.46
2019-03-27T05:20:45.903Z,1014.48
2019-03-27T05:21:45.922Z,1014.51
2019-03-27T05:22:45.938Z,1014.51
2019-03-27T05:23:45.954Z,1014.55
2019-03-27T05:24:45.974Z,1014.55
2019-03-27T05:25:45.992Z,1014.52
2019-03-27T05:26:46.007Z,1014.54
2019-03-27T05:27:46.023Z,1014.58
2019-03-27T05:28:46.041Z,1014.6
2019-03-27T05:29:46.060Z,1014.62
2019-03-27T05:30:46.076Z,1014.64
2019-03-27T05:31:46.093Z,1014.64
2019-03-27T05:32:46.110Z,1014.66
2019-03-27T05:33:46.126Z,1014.66
2019-03-27T05:34:46.147Z,1014.67
2019-03-27T05:35:46.162Z,1014.71
2019-03-27T05:36:46.180Z,1014.69
2019-03-27T05:37:46.211Z,1014.68
2019-03-27T05:38:46.217Z,1014.7
2019-03-27T05:39:46.232Z,1014.71
2019-03-27T05:40:46.249Z,1014.69
2019-03-27T05:41:46.265Z,1014.71
2019-03-27T05:42:59.639Z,1014.71
2019-03-27T05:43:46.302Z,1014.74
2019-03-27T05:44:46.317Z,1014.76
2019-03-27T05:45:46.335Z,1014.79
2019-03-27T05:46:46.353Z,1014.79
2019-03-27T05:47:58.809Z,1014.81
2019-03-27T05:48:46.387Z,1014.77
2019-03-27T05:49:46.405Z,1014.84
2019-03-27T05:50:46.424Z,1014.83
2019-03-27T05:51:46.441Z,1014.85
2019-03-27T05:52:46.458Z,1014.87
2019-03-27T05:53:46.476Z,1014.94
2019-03-27T05:54:46.493Z,1014.97
2019-03-27T05:55:46.510Z,1014.97
2019-03-27T05:56:46.527Z,1014.97
2019-03-27T05:57:46.545Z,1014.97
2019-03-27T05:58:46.562Z,1015.01
2019-03-27T05:59:46.578Z,1015
2019-03-27T06:00:46.596Z,1014.96
2019-03-27T06:01:46.615Z,1014.98
2019-03-27T06:02:46.630Z,1015
2019-03-27T06:03:46.651Z,1015
2019-03-27T06:04:46.666Z,1014.96
2019-03-27T06:05:46.688Z,1014.94
2019-03-27T06:06:46.701Z,1014.97
2019-03-27T06:07:46.718Z,1014.9
2019-03-27T06:08:46.735Z,1014.93
2019-03-27T06:09:46.754Z,1014.95
2019-03-27T06:10:46.775Z,1014.98
2019-03-27T06:11:46.786Z,1014.96
2019-03-27T06:12:46.807Z,1014.96
2019-03-27T06:13:46.821Z,1014.99
2019-03-27T06:14:46.838Z,1014.98
2019-03-27T06:15:46.858Z,1014.99
2019-03-27T06:16:46.874Z,1015
2019-03-27T06:17:46.892Z,1015.01
2019-03-27T06:18:46.909Z,1014.97
2019-03-27T06:19:46.927Z,1014.99
2019-03-27T06:20:46.944Z,1015.01
2019-03-27T06:21:46.960Z,1014.95
2019-03-27T06:22:46.979Z,1014.97
2019-03-27T06:23:46.995Z,1015.02
2019-03-27T06:24:47.012Z,1015.01
2019-03-27T06:25:47.030Z,1015.02
2019-03-27T06:26:47.047Z,1015.06
2019-03-27T06:27:47.065Z,1015.13
2019-03-27T06:28:47.082Z,1015.13
2019-03-27T06:29:47.099Z,1015.18
2019-03-27T06:30:47.116Z,1015.18
2019-03-27T06:31:47.135Z,1015.21
2019-03-27T06:32:47.152Z,1015.23
2019-03-27T06:33:47.169Z,1015.18
2019-03-27T06:34:47.187Z,1015.2
2019-03-27T06:35:47.204Z,1015.19
2019-03-27T06:36:47.227Z,1015.2
2019-03-27T06:37:47.237Z,1015.24
2019-03-27T06:38:47.257Z,1015.23
2019-03-27T06:39:47.274Z,1015.26
2019-03-27T06:40:47.290Z,1015.27
2019-03-27T06:41:47.308Z,1015.28
2019-03-27T06:42:47.326Z,1015.33
2019-03-27T06:43:47.344Z,1015.31
2019-03-27T06:44:47.360Z,1015.33
2019-03-27T06:45:47.378Z,1015.34
2019-03-27T06:46:47.395Z,1015.34
2019-03-27T06:47:47.417Z,1015.33
2019-03-27T06:48:47.436Z,1015.3
2019-03-27T06:49:47.450Z,1015.28
2019-03-27T06:50:47.465Z,1015.29
2019-03-27T06:51:47.483Z,1015.29
2019-03-27T06:52:47.501Z,1015.28
2019-03-27T06:53:47.518Z,1015.23
2019-03-27T06:54:47.592Z,1015.29
2019-03-27T06:55:47.555Z,1015.24
2019-03-27T06:56:47.571Z,1015.24
2019-03-27T06:57:47.587Z,1015.27
2019-03-27T06:58:54.216Z,1015.23
2019-03-27T06:59:47.624Z,1015.2
2019-03-27T07:00:47.643Z,1015.21
2019-03-27T07:01:47.657Z,1015.2
2019-03-27T07:02:47.683Z,1015.21
2019-03-27T07:03:47.694Z,1015.19
2019-03-27T07:04:47.712Z,1015.17
2019-03-27T07:05:47.729Z,1015.17
2019-03-27T07:06:47.748Z,1015.19
2019-03-27T07:07:47.765Z,1015.19
2019-03-27T07:08:47.780Z,1015.2
2019-03-27T07:09:47.799Z,1015.29
2019-03-27T07:10:47.816Z,1015.27
2019-03-27T07:11:47.834Z,1015.32
2019-03-27T07:12:47.850Z,1015.32
2019-03-27T07:13:47.868Z,1015.43
2019-03-27T07:14:47.886Z,1015.41
2019-03-27T07:15:47.904Z,1015.41
2019-03-27T07:16:47.919Z,1015.39
2019-03-27T07:17:47.939Z,1015.43
2019-03-27T07:18:47.956Z,1015.47
2019-03-27T07:19:47.972Z,1015.44
2019-03-27T07:20:47.989Z,1015.46
2019-03-27T07:21:48.007Z,1015.43
2019-03-27T07:22:48.026Z,1015.41
2019-03-27T07:23:48.043Z,1015.46
2019-03-27T07:24:48.060Z,1015.42
2019-03-27T07:25:48.077Z,1015.45
2019-03-27T07:26:48.096Z,1015.45
2019-03-27T07:27:48.114Z,1015.47
2019-03-27T07:28:48.132Z,1015.49
2019-03-27T07:29:48.155Z,1015.45
2019-03-27T07:30:48.170Z,1015.48
2019-03-27T07:31:48.182Z,1015.5
2019-03-27T07:32:48.202Z,1015.47
2019-03-27T07:33:48.295Z,1015.54
2019-03-27T07:34:48.235Z,1015.53
2019-03-27T07:35:48.254Z,1015.56
2019-03-27T07:36:48.271Z,1015.55
2019-03-27T07:37:48.290Z,1015.54
2019-03-27T07:38:48.305Z,1015.49
2019-03-27T07:39:48.324Z,1015.51
2019-03-27T07:40:48.342Z,1015.49
2019-03-27T07:41:48.358Z,1015.5
2019-03-27T07:42:48.375Z,1015.47
2019-03-27T07:43:48.392Z,1015.49
2019-03-27T07:44:48.412Z,1015.47
2019-03-27T07:45:48.428Z,1015.46
2019-03-27T07:46:48.445Z,1015.41
2019-03-27T07:47:48.463Z,1015.44
2019-03-27T07:48:54.015Z,1015.51
2019-03-27T07:49:48.498Z,1015.49
2019-03-27T07:50:48.516Z,1015.49
2019-03-27T07:51:48.535Z,1015.51
2019-03-27T07:52:48.551Z,1015.55
2019-03-27T07:53:48.569Z,1015.53
2019-03-27T07:54:48.587Z,1015.57
2019-03-27T07:55:48.604Z,1015.61
2019-03-27T07:56:48.621Z,1015.62
2019-03-27T07:57:48.639Z,1015.6
2019-03-27T07:58:48.656Z,1015.64
2019-03-27T07:59:48.674Z,1015.63
2019-03-27T08:00:48.703Z,1015.62
2019-03-27T08:01:48.710Z,1015.66
2019-03-27T08:02:48.726Z,1015.68
2019-03-27T08:03:48.744Z,1015.73
2019-03-27T08:04:48.766Z,1015.75
2019-03-27T08:05:48.781Z,1015.71
2019-03-27T08:06:48.797Z,1015.75
2019-03-27T08:07:48.815Z,1015.76
2019-03-27T08:08:48.847Z,1015.76
2019-03-27T08:09:48.851Z,1015.75
2019-03-27T08:10:48.868Z,1015.82
2019-03-27T08:11:48.887Z,1015.76
2019-03-27T08:12:48.905Z,1015.79
2019-03-27T08:13:48.921Z,1015.81
2019-03-27T08:14:48.940Z,1015.85
2019-03-27T08:15:48.958Z,1015.84
2019-03-27T08:16:48.976Z,1015.85
2019-03-27T08:17:48.996Z,1015.85
2019-03-27T08:18:49.011Z,1015.85
2019-03-27T08:19:49.029Z,1015.88
2019-03-27T08:20:49.046Z,1015.87
2019-03-27T08:21:49.065Z,1015.86
2019-03-27T08:22:49.082Z,1015.85
2019-03-27T08:23:49.100Z,1015.86
2019-03-27T08:24:49.118Z,1015.86
2019-03-27T08:25:49.135Z,1015.87
2019-03-27T08:26:49.153Z,1015.92
2019-03-27T08:27:49.171Z,1015.92
2019-03-27T08:28:49.190Z,1015.9
2019-03-27T08:29:49.206Z,1015.94
2019-03-27T08:30:49.228Z,1015.91
2019-03-27T08:31:49.243Z,1015.94
2019-03-27T08:32:49.259Z,1015.94
2019-03-27T08:33:49.280Z,1015.93
2019-03-27T08:34:49.295Z,1015.98
2019-03-27T08:35:49.314Z,1015.98
2019-03-27T08:36:49.339Z,1016
2019-03-27T08:37:49.348Z,1016.02
2019-03-27T08:38:49.367Z,1016.03
2019-03-27T08:39:49.385Z,1016.01
2019-03-27T08:40:49.402Z,1016.04
2019-03-27T08:41:49.420Z,1016.06
2019-03-27T08:42:49.442Z,1016.08
2019-03-27T08:43:49.457Z,1016.14
2019-03-27T08:44:49.474Z,1016.15
2019-03-27T08:45:49.493Z,1016.15
2019-03-27T08:46:49.511Z,1016.17
2019-03-27T08:47:49.546Z,1016.16
2019-03-27T08:48:49.554Z,1016.19
2019-03-27T08:49:49.564Z,1016.18
2019-03-27T08:50:49.587Z,1016.14
2019-03-27T08:51:49.598Z,1016.14
2019-03-27T08:52:49.616Z,1016.14
2019-03-27T08:53:49.635Z,1016.13
2019-03-27T08:54:49.652Z,1016.12
2019-03-27T08:55:49.680Z,1016.13
2019-03-27T08:56:49.689Z,1016.12
2019-03-27T08:57:49.707Z,1016.15
2019-03-27T08:58:49.723Z,1016.17
2019-03-27T08:59:49.743Z,1016.14
2019-03-27T09:00:49.767Z,1016.17
2019-03-27T09:01:49.777Z,1016.19
2019-03-27T09:02:49.799Z,1016.17
2019-03-27T09:03:49.815Z,1016.17
2019-03-27T09:04:49.833Z,1016.17
2019-03-27T09:05:49.851Z,1016.2
2019-03-27T09:06:49.869Z,1016.16
2019-03-27T09:07:49.887Z,1016.2
2019-03-27T09:08:49.906Z,1016.19
2019-03-27T09:09:49.923Z,1016.26
2019-03-27T09:10:49.941Z,1016.24
2019-03-27T09:11:49.959Z,1016.23
2019-03-27T09:12:49.976Z,1016.25
2019-03-27T09:13:49.994Z,1016.25
2019-03-27T09:14:50.013Z,1016.19
2019-03-27T09:15:50.032Z,1016.17
2019-03-27T09:16:50.051Z,1016.18
2019-03-27T09:17:50.067Z,1016.14
2019-03-27T09:18:50.085Z,1016.14
2019-03-27T09:19:50.102Z,1016.19
2019-03-27T09:20:50.120Z,1016.21
2019-03-27T09:21:50.140Z,1016.2
2019-03-27T09:22:50.158Z,1016.23
2019-03-27T09:23:50.176Z,1016.21
2019-03-27T09:24:50.193Z,1016.3
2019-03-27T09:25:50.212Z,1016.24
2019-03-27T09:26:50.230Z,1016.25
2019-03-27T09:27:50.249Z,1016.25
2019-03-27T09:28:50.265Z,1016.24
2019-03-27T09:29:50.283Z,1016.24
2019-03-27T09:30:50.302Z,1016.29
2019-03-27T09:31:50.319Z,1016.27
2019-03-27T09:32:50.343Z,1016.29
2019-03-27T09:33:50.356Z,1016.27
2019-03-27T09:34:50.375Z,1016.28
2019-03-27T09:35:50.419Z,1016.29
2019-03-27T09:36:50.413Z,1016.31
2019-03-27T09:37:50.429Z,1016.34
2019-03-27T09:38:50.446Z,1016.35
2019-03-27T09:39:50.465Z,1016.35
2019-03-27T09:40:50.483Z,1016.38
2019-03-27T09:41:50.502Z,1016.4
2019-03-27T09:42:50.519Z,1016.38
2019-03-27T09:43:50.537Z,1016.4
2019-03-27T09:44:50.556Z,1016.37
2019-03-27T09:45:50.574Z,1016.44
2019-03-27T09:46:50.596Z,1016.43
2019-03-27T09:47:50.611Z,1016.44
2019-03-27T09:48:50.629Z,1016.49
2019-03-27T09:49:50.648Z,1016.5
2019-03-27T09:50:50.667Z,1016.51
2019-03-27T09:51:50.686Z,1016.51
2019-03-27T09:52:50.702Z,1016.52
2019-03-27T09:53:53.096Z,1016.58
2019-03-27T09:54:50.739Z,1016.55
2019-03-27T09:55:50.758Z,1016.54
2019-03-27T09:56:50.776Z,1016.59
2019-03-27T09:57:50.792Z,1016.54
2019-03-27T09:58:50.857Z,1016.54
2019-03-27T09:59:50.832Z,1016.57
2019-03-27T10:00:50.849Z,1016.54
2019-03-27T10:01:50.868Z,1016.53
2019-03-27T10:02:50.886Z,1016.51
2019-03-27T10:03:50.905Z,1016.55
2019-03-27T10:04:50.924Z,1016.53
2019-03-27T10:05:50.942Z,1016.53
2019-03-27T10:06:50.960Z,1016.52
2019-03-27T10:07:50.979Z,1016.51
2019-03-27T10:08:50.998Z,1016.43
2019-03-27T10:09:51.016Z,1016.53
2019-03-27T10:10:51.034Z,1016.47
2019-03-27T10:11:51.052Z,1016.47
2019-03-27T10:12:51.071Z,1016.48
2019-03-27T10:13:51.089Z,1016.47
2019-03-27T10:14:51.110Z,1016.54
2019-03-27T10:15:51.125Z,1016.55
2019-03-27T10:16:51.146Z,1016.53
2019-03-27T10:17:51.165Z,1016.56
2019-03-27T10:18:51.181Z,1016.58
2019-03-27T10:20:02.711Z,1016.53
2019-03-27T10:20:51.289Z,1016.56
2019-03-27T10:21:51.241Z,1016.53
2019-03-27T10:22:51.256Z,1016.55
2019-03-27T10:23:51.275Z,1016.55
2019-03-27T10:24:51.294Z,1016.55
2019-03-27T10:25:51.313Z,1016.55
2019-03-27T10:26:51.330Z,1016.54
2019-03-27T10:27:51.351Z,1016.54
2019-03-27T10:28:51.368Z,1016.53
2019-03-27T10:29:51.386Z,1016.57
2019-03-27T10:30:51.404Z,1016.53
2019-03-27T10:31:51.425Z,1016.53
2019-03-27T10:32:51.442Z,1016.55
2019-03-27T10:33:51.460Z,1016.54
2019-03-27T10:34:51.478Z,1016.54
2019-03-27T10:35:51.499Z,1016.56
2019-03-27T10:36:51.522Z,1016.58
2019-03-27T10:37:51.537Z,1016.61
2019-03-27T10:38:51.556Z,1016.61
2019-03-27T10:39:51.574Z,1016.6
2019-03-27T10:40:51.592Z,1016.59
2019-03-27T10:41:51.612Z,1016.62
2019-03-27T10:42:51.631Z,1016.62
2019-03-27T10:43:51.650Z,1016.68
2019-03-27T10:44:51.669Z,1016.64
2019-03-27T10:45:51.686Z,1016.63
2019-03-27T10:46:51.705Z,1016.6
2019-03-27T10:47:51.723Z,1016.64
2019-03-27T10:48:53.115Z,1016.61
2019-03-27T10:49:51.762Z,1016.65
2019-03-27T10:50:51.780Z,1016.61
2019-03-27T10:51:51.802Z,1016.61
2019-03-27T10:52:51.850Z,1016.61
2019-03-27T10:53:51.842Z,1016.63
2019-03-27T10:54:51.856Z,1016.64
2019-03-27T10:55:51.881Z,1016.64
2019-03-27T10:56:51.893Z,1016.66
2019-03-27T10:57:51.914Z,1016.66
2019-03-27T10:58:51.929Z,1016.69
2019-03-27T10:59:51.951Z,1016.69
2019-03-27T11:00:51.969Z,1016.69
2019-03-27T11:01:52.003Z,1016.72
2019-03-27T11:02:52.007Z,1016.71
2019-03-27T11:03:52.025Z,1016.73
2019-03-27T11:04:52.045Z,1016.7
2019-03-27T11:05:52.063Z,1016.72
2019-03-27T11:06:52.082Z,1016.72
2019-03-27T11:07:52.101Z,1016.7
2019-03-27T11:08:52.121Z,1016.72
2019-03-27T11:09:52.140Z,1016.66
2019-03-27T11:10:52.158Z,1016.69
2019-03-27T11:11:52.176Z,1016.69
2019-03-27T11:12:52.197Z,1016.7
2019-03-27T11:13:52.219Z,1016.73
2019-03-27T11:14:52.285Z,1016.67
2019-03-27T11:15:52.253Z,1016.63
2019-03-27T11:16:52.278Z,1016.61
2019-03-27T11:17:52.291Z,1016.62
2019-03-27T11:18:52.311Z,1016.63
2019-03-27T11:19:52.330Z,1016.56
2019-03-27T11:20:52.352Z,1016.56
2019-03-27T11:21:52.372Z,1016.58
2019-03-27T11:22:52.387Z,1016.65
2019-03-27T11:23:52.408Z,1016.66
2019-03-27T11:24:52.426Z,1016.61
2019-03-27T11:25:52.457Z,1016.65
2019-03-27T11:26:52.463Z,1016.64
2019-03-27T11:27:52.483Z,1016.66
2019-03-27T11:28:52.502Z,1016.68
2019-03-27T11:29:52.582Z,1016.67
2019-03-27T11:30:52.541Z,1016.69
2019-03-27T11:31:52.561Z,1016.65
2019-03-27T11:32:52.578Z,1016.64
2019-03-27T11:33:52.600Z,1016.57
2019-03-27T11:34:52.618Z,1016.56
2019-03-27T11:35:52.637Z,1016.59
2019-03-27T11:36:52.659Z,1016.51
2019-03-27T11:37:52.676Z,1016.52
2019-03-27T11:38:52.700Z,1016.44
2019-03-27T11:39:52.717Z,1016.49
2019-03-27T11:40:52.733Z,1016.46
2019-03-27T11:41:52.752Z,1016.48
2019-03-27T11:42:52.771Z,1016.5
2019-03-27T11:43:54.911Z,1016.5
2019-03-27T11:44:52.810Z,1016.49
2019-03-27T11:45:52.833Z,1016.52
2019-03-27T11:46:52.848Z,1016.47
2019-03-27T11:47:52.868Z,1016.5
2019-03-27T11:48:52.887Z,1016.47
2019-03-27T11:49:52.905Z,1016.47
2019-03-27T11:50:52.925Z,1016.39
2019-03-27T11:51:52.945Z,1016.42
2019-03-27T11:52:52.966Z,1016.44
2019-03-27T11:53:52.982Z,1016.44
2019-03-27T11:54:53.003Z,1016.43
2019-03-27T11:55:53.021Z,1016.45
2019-03-27T11:56:53.041Z,1016.42
2019-03-27T11:57:53.059Z,1016.44
2019-03-27T11:58:53.079Z,1016.44
2019-03-27T11:59:54.337Z,1016.42
2019-03-27T12:00:54.684Z,1016.42
2019-03-27T12:01:53.142Z,1016.45
2019-03-27T12:02:53.156Z,1016.38
2019-03-27T12:03:53.176Z,1016.4
2019-03-27T12:04:53.193Z,1016.41
2019-03-27T12:05:53.214Z,1016.43
2019-03-27T12:06:53.234Z,1016.42
2019-03-27T12:07:53.253Z,1016.45
2019-03-27T12:08:53.272Z,1016.41